Time;durP1;ratioP1;P1;durP2;ratioP2;P2;SDS_P1;SDS_P2;PMS_P1;PMS_P2;Temp;Humidity;BMP_temperature;BMP_pressure;BME280_temperature;BME280_humidity;BME280_pressure;Samples;Min_cycle;Max_cycle;Signal;HPM_P1;HPM_P2
2023/07/20 00:00:39;;;;;;;2.20;1.30;;;15.90;99.90;;;;;;5014116;28;20052;-85
2023/07/20 00:03:18;;;;;;;5.75;1.23;;;15.80;99.90;;;;;;5043629;28;20029;-85
2023/07/20 00:05:45;;;;;;;1.77;1.15;;;15.80;99.90;;;;;;5043241;28;20144;-86
2023/07/20 00:08:11;;;;;;;3.45;1.05;;;15.80;99.90;;;;;;5027181;28;20370;-85
2023/07/20 00:10:37;;;;;;;2.67;1.30;;;15.80;99.90;;;;;;5043330;28;20040;-85
2023/07/20 00:13:03;;;;;;;2.63;1.30;;;15.70;99.90;;;;;;5052196;28;20109;-85
2023/07/20 00:15:31;;;;;;;3.85;1.38;;;15.70;99.90;;;;;;5047060;28;20067;-85
2023/07/20 00:17:57;;;;;;;1.65;1.00;;;15.70;99.90;;;;;;5079801;28;20435;-85
2023/07/20 00:20:24;;;;;;;1.90;1.10;;;15.60;99.90;;;;;;5013768;28;20036;-85
2023/07/20 00:22:54;;;;;;;3.47;1.50;;;15.60;99.90;;;;;;5041211;28;20199;-86
2023/07/20 00:25:20;;;;;;;2.15;1.10;;;15.60;99.90;;;;;;5062861;28;20036;-87
2023/07/20 00:27:46;;;;;;;3.20;1.20;;;15.60;99.90;;;;;;5028573;28;20059;-86
2023/07/20 00:30:14;;;;;;;3.17;1.40;;;15.50;99.90;;;;;;5062800;28;20330;-86
2023/07/20 00:32:40;;;;;;;4.53;1.20;;;15.50;99.90;;;;;;5046290;28;20043;-85
2023/07/20 00:35:09;;;;;;;4.35;1.60;;;15.50;99.90;;;;;;5026608;28;20028;-85
2023/07/20 00:37:35;;;;;;;6.38;1.48;;;15.50;99.90;;;;;;5027076;28;20031;-85
2023/07/20 00:40:04;;;;;;;3.58;1.40;;;15.40;99.90;;;;;;5030289;28;20032;-85
2023/07/20 00:42:31;;;;;;;4.28;1.55;;;15.40;99.90;;;;;;5020429;28;20061;-87
2023/07/20 00:44:57;;;;;;;5.30;1.35;;;15.40;99.90;;;;;;5020542;28;20034;-86
2023/07/20 00:47:23;;;;;;;4.30;1.45;;;15.40;99.90;;;;;;5032112;28;20036;-85
2023/07/20 00:49:51;;;;;;;3.92;1.40;;;15.40;99.90;;;;;;5039744;28;20101;-86
2023/07/20 00:52:20;;;;;;;3.05;1.33;;;15.30;99.90;;;;;;5052600;28;20032;-86
2023/07/20 00:54:47;;;;;;;1.98;1.08;;;15.30;99.90;;;;;;5070433;28;20036;-86
2023/07/20 00:57:15;;;;;;;5.07;1.50;;;15.20;99.90;;;;;;5035470;28;20028;-85
2023/07/20 00:59:44;;;;;;;3.28;1.27;;;15.20;99.90;;;;;;5044998;28;20032;-85
2023/07/20 01:02:11;;;;;;;2.10;1.30;;;15.20;99.90;;;;;;5027629;28;20066;-85
2023/07/20 01:04:37;;;;;;;4.32;1.50;;;15.20;99.90;;;;;;5042321;28;20127;-85
2023/07/20 01:07:16;;;;;;;3.22;1.45;;;15.10;99.90;;;;;;5059090;28;20050;-85
2023/07/20 01:09:51;;;;;;;4.88;1.40;;;15.10;99.90;;;;;;5058721;28;20434;-84
2023/07/20 01:12:30;;;;;;;5.80;1.90;;;15.10;99.90;;;;;;5033265;28;20043;-85
2023/07/20 01:14:57;;;;;;;5.80;1.40;;;15.00;99.90;;;;;;5041618;28;20127;-85
2023/07/20 01:17:24;;;;;;;3.65;1.40;;;15.00;99.90;;;;;;5056794;28;20111;-85
2023/07/20 01:19:50;;;;;;;4.18;1.48;;;15.00;99.90;;;;;;5045422;28;20038;-86
2023/07/20 01:22:38;;;;;;;3.80;1.40;;;14.90;99.90;;;;;;5029223;28;20032;-85
2023/07/20 01:25:32;;;;;;;3.85;1.23;;;14.90;99.90;;;;;;5041797;28;20043;-85
2023/07/20 01:28:24;;;;;;;4.47;1.50;;;14.90;99.90;;;;;;5041966;28;20058;-85
2023/07/20 01:31:02;;;;;;;3.72;1.38;;;14.80;99.90;;;;;;5042118;28;20447;-85
2023/07/20 01:33:32;;;;;;;3.15;1.40;;;14.80;99.90;;;;;;5042104;28;20040;-85
2023/07/20 01:36:00;;;;;;;3.20;1.40;;;14.80;99.90;;;;;;5060271;28;20085;-85
2023/07/20 01:38:28;;;;;;;3.97;1.58;;;14.80;99.90;;;;;;5055221;28;20033;-85
2023/07/20 01:40:55;;;;;;;3.83;1.70;;;14.70;99.90;;;;;;5025000;28;20039;-85
2023/07/20 01:43:21;;;;;;;4.10;1.40;;;14.70;99.90;;;;;;5025484;28;20036;-85
2023/07/20 01:45:48;;;;;;;3.83;1.40;;;14.70;99.90;;;;;;5025102;28;20037;-85
2023/07/20 01:48:16;;;;;;;3.15;1.38;;;14.70;99.90;;;;;;5025364;28;20039;-85
2023/07/20 01:50:43;;;;;;;4.50;1.48;;;14.70;99.90;;;;;;5013721;28;20044;-85
2023/07/20 01:53:09;;;;;;;1.83;1.13;;;14.60;99.90;;;;;;5041461;28;20043;-85
2023/07/20 01:55:35;;;;;;;3.20;1.23;;;14.60;99.90;;;;;;5008551;28;20041;-85
2023/07/20 01:58:01;;;;;;;4.40;1.40;;;14.60;99.90;;;;;;5009060;28;20271;-85
2023/07/20 02:00:27;;;;;;;4.43;1.50;;;14.60;99.90;;;;;;5025983;28;20056;-85
2023/07/20 02:02:53;;;;;;;3.67;1.30;;;14.50;99.90;;;;;;5044815;28;20024;-86
2023/07/20 02:05:19;;;;;;;2.58;1.10;;;14.50;99.90;;;;;;5060974;28;20135;-85
2023/07/20 02:07:45;;;;;;;3.45;1.33;;;14.50;99.90;;;;;;5061647;28;20032;-85
2023/07/20 02:10:12;;;;;;;4.78;1.45;;;14.50;99.90;;;;;;5011275;28;20043;-85
2023/07/20 02:12:38;;;;;;;2.80;1.42;;;14.40;99.90;;;;;;5077845;28;20032;-85
2023/07/20 02:15:04;;;;;;;5.80;1.50;;;14.50;99.90;;;;;;5043293;28;20028;-85
2023/07/20 02:17:30;;;;;;;2.25;1.30;;;14.40;99.90;;;;;;5061205;28;20028;-85
2023/07/20 02:19:57;;;;;;;3.33;1.23;;;14.40;99.90;;;;;;5044498;28;20040;-85
2023/07/20 02:22:24;;;;;;;7.82;1.42;;;14.40;99.90;;;;;;5028249;28;20169;-84
2023/07/20 02:24:50;;;;;;;2.20;1.33;;;14.40;99.90;;;;;;5044434;28;20032;-85
2023/07/20 02:27:16;;;;;;;3.40;1.42;;;14.30;99.90;;;;;;5024690;28;20051;-85
2023/07/20 02:29:42;;;;;;;5.35;1.50;;;14.30;99.90;;;;;;5024894;28;20033;-85
2023/07/20 02:32:10;;;;;;;4.53;1.63;;;14.30;99.90;;;;;;5008682;28;20029;-85
2023/07/20 02:34:37;;;;;;;2.70;1.48;;;14.30;99.90;;;;;;5019672;28;20047;-85
2023/07/20 02:37:05;;;;;;;3.72;1.40;;;14.30;99.90;;;;;;5045037;28;20380;-85
2023/07/20 02:39:33;;;;;;;3.28;1.40;;;14.20;99.90;;;;;;5044691;28;20066;-85
2023/07/20 02:41:59;;;;;;;5.28;1.50;;;14.30;99.90;;;;;;5060535;28;20052;-85
2023/07/20 02:44:25;;;;;;;3.67;1.50;;;14.20;99.90;;;;;;5060784;28;20032;-85
2023/07/20 02:46:51;;;;;;;3.60;1.50;;;14.20;99.90;;;;;;5060748;28;20032;-84
2023/07/20 02:49:17;;;;;;;4.93;1.50;;;14.20;99.90;;;;;;5027717;28;20043;-85
2023/07/20 02:51:44;;;;;;;4.70;1.55;;;14.20;99.90;;;;;;5077500;28;20430;-85
2023/07/20 02:54:10;;;;;;;6.10;1.67;;;14.20;99.90;;;;;;5040743;28;20037;-85
2023/07/20 02:56:36;;;;;;;3.95;1.60;;;14.20;99.90;;;;;;5008145;28;20082;-85
2023/07/20 02:59:02;;;;;;;3.45;1.67;;;14.10;99.90;;;;;;5040754;28;20111;-85
2023/07/20 03:01:31;;;;;;;5.00;1.83;;;14.10;99.90;;;;;;5024543;28;20434;-85
2023/07/20 03:03:57;;;;;;;3.40;1.63;;;14.10;99.90;;;;;;5024732;28;20178;-85
2023/07/20 03:06:23;;;;;;;4.18;1.75;;;14.10;99.90;;;;;;5040694;28;20060;-85
2023/07/20 03:08:53;;;;;;;5.68;1.63;;;14.00;99.90;;;;;;5040740;28;20054;-85
2023/07/20 03:11:20;;;;;;;4.03;1.48;;;14.00;99.90;;;;;;5040657;28;20029;-85
2023/07/20 03:13:47;;;;;;;3.22;1.70;;;14.00;99.90;;;;;;5040621;28;20055;-85
2023/07/20 03:16:17;;;;;;;5.45;1.90;;;14.00;99.90;;;;;;5054242;28;20025;-85
2023/07/20 03:18:44;;;;;;;2.92;1.60;;;14.00;99.90;;;;;;5057184;28;20029;-85
2023/07/20 03:21:11;;;;;;;3.17;1.60;;;13.90;99.90;;;;;;5023716;28;20313;-85
2023/07/20 03:23:38;;;;;;;6.45;1.70;;;14.00;99.90;;;;;;5027695;28;20369;-85
2023/07/20 03:26:04;;;;;;;4.57;1.50;;;13.90;99.90;;;;;;5040813;28;20040;-85
2023/07/20 03:28:31;;;;;;;2.97;1.50;;;13.90;99.90;;;;;;5048035;28;20051;-85
2023/07/20 03:30:57;;;;;;;4.15;1.75;;;13.90;99.90;;;;;;5047533;28;20067;-85
2023/07/20 03:33:27;;;;;;;5.25;1.55;;;13.90;99.90;;;;;;5064070;28;20039;-85
2023/07/20 03:35:53;;;;;;;4.13;1.70;;;13.90;99.90;;;;;;5029820;28;20442;-85
2023/07/20 03:38:20;;;;;;;3.38;1.70;;;13.90;99.90;;;;;;5043853;28;20035;-85
2023/07/20 03:40:54;;;;;;;3.38;1.75;;;13.90;99.90;;;;;;5043848;28;20058;-85
2023/07/20 03:43:21;;;;;;;4.75;1.50;;;13.90;99.90;;;;;;5063472;28;20040;-85
2023/07/20 03:45:50;;;;;;;5.38;1.55;;;13.80;99.90;;;;;;5046370;28;20061;-85
2023/07/20 03:48:18;;;;;;;4.80;1.60;;;13.80;99.90;;;;;;5064058;28;20035;-85
2023/07/20 03:50:45;;;;;;;4.38;1.90;;;13.80;99.90;;;;;;5063578;28;20034;-84
2023/07/20 03:53:12;;;;;;;5.47;1.90;;;13.80;99.90;;;;;;5047269;28;20043;-85
2023/07/20 03:55:40;;;;;;;2.65;1.60;;;13.80;99.90;;;;;;5063309;28;20047;-84
2023/07/20 03:58:09;;;;;;;4.70;1.92;;;13.80;99.90;;;;;;5047422;28;20032;-85
2023/07/20 04:00:39;;;;;;;3.78;1.85;;;13.80;99.90;;;;;;5046888;28;20032;-85
2023/07/20 04:03:05;;;;;;;6.43;2.00;;;13.80;99.90;;;;;;5063912;28;20330;-84
2023/07/20 04:05:31;;;;;;;2.92;1.73;;;13.80;99.90;;;;;;5054768;28;20032;-85
2023/07/20 04:07:58;;;;;;;6.90;2.08;;;14.00;99.90;;;;;;5047042;28;20093;-85
2023/07/20 04:10:24;;;;;;;4.53;1.70;;;13.90;99.90;;;;;;5046643;28;20036;-85
2023/07/20 04:12:51;;;;;;;2.88;1.77;;;13.90;99.90;;;;;;5063628;28;20036;-85
2023/07/20 04:15:20;;;;;;;6.50;1.92;;;13.80;99.90;;;;;;5029250;28;20045;-85
2023/07/20 04:17:46;;;;;;;5.65;1.90;;;13.80;99.90;;;;;;5040595;28;20036;-85
2023/07/20 04:20:13;;;;;;;7.72;1.85;;;13.80;99.90;;;;;;5010341;28;20033;-86
2023/07/20 04:22:39;;;;;;;2.55;1.60;;;13.80;99.90;;;;;;5031826;28;20032;-86
2023/07/20 04:25:09;;;;;;;3.78;1.77;;;13.80;99.90;;;;;;5047230;28;20067;-85
2023/07/20 04:27:36;;;;;;;4.40;1.70;;;13.80;99.90;;;;;;5047055;28;20040;-84
2023/07/20 04:30:03;;;;;;;3.70;1.70;;;13.80;99.90;;;;;;5046391;28;20032;-84
2023/07/20 04:32:33;;;;;;;5.28;1.88;;;13.80;99.90;;;;;;5046312;28;20457;-85
2023/07/20 04:35:10;;;;;;;6.63;1.95;;;13.90;99.90;;;;;;5028760;28;20060;-86
2023/07/20 04:37:45;;;;;;;4.25;1.80;;;13.80;99.90;;;;;;5042750;28;20523;-85
2023/07/20 04:40:15;;;;;;;6.43;1.70;;;13.90;99.90;;;;;;5042997;28;20174;-85
2023/07/20 04:42:44;;;;;;;5.15;1.90;;;13.90;99.90;;;;;;5026499;28;20381;-85
2023/07/20 04:45:10;;;;;;;3.65;1.90;;;13.90;99.90;;;;;;5026242;28;20121;-85
2023/07/20 04:47:37;;;;;;;2.63;1.50;;;13.90;99.90;;;;;;5029486;28;20131;-85
2023/07/20 04:50:03;;;;;;;6.18;1.80;;;14.00;99.90;;;;;;5045859;28;20082;-85
2023/07/20 04:52:30;;;;;;;2.97;1.60;;;14.00;99.90;;;;;;5029720;28;20130;-84
2023/07/20 04:54:57;;;;;;;4.55;1.90;;;14.00;99.90;;;;;;5039162;28;20036;-85
2023/07/20 04:57:27;;;;;;;4.75;1.58;;;14.00;99.90;;;;;;5043722;28;20123;-85
2023/07/20 04:59:53;;;;;;;5.05;1.80;;;14.00;99.90;;;;;;5005742;28;20036;-85
2023/07/20 05:02:19;;;;;;;3.88;1.75;;;14.00;99.90;;;;;;5025790;28;20202;-85
2023/07/20 05:04:45;;;;;;;6.35;2.05;;;14.00;99.90;;;;;;5025881;28;20060;-85
2023/07/20 05:07:11;;;;;;;4.28;1.70;;;14.00;99.90;;;;;;5042352;28;20375;-86
2023/07/20 05:09:37;;;;;;;7.68;1.80;;;14.00;99.90;;;;;;5025798;28;20127;-85
2023/07/20 05:12:03;;;;;;;4.57;1.60;;;14.10;99.90;;;;;;5042120;28;20115;-84
2023/07/20 05:14:29;;;;;;;4.00;1.70;;;14.10;99.90;;;;;;5025371;28;20412;-85
2023/07/20 05:16:56;;;;;;;4.95;1.88;;;14.10;99.90;;;;;;5040421;28;20036;-85
2023/07/20 05:19:22;;;;;;;5.80;1.85;;;14.20;99.90;;;;;;5012927;28;20060;-85
2023/07/20 05:21:48;;;;;;;5.78;2.47;;;14.20;99.90;;;;;;5062273;28;20028;-85
2023/07/20 05:24:14;;;;;;;5.78;1.70;;;14.20;99.90;;;;;;5041993;28;20036;-85
2023/07/20 05:26:43;;;;;;;3.72;1.85;;;14.20;99.90;;;;;;5048641;28;20031;-85
2023/07/20 05:29:08;;;;;;;5.47;1.98;;;14.30;99.90;;;;;;5039331;28;20392;-87
2023/07/20 05:31:34;;;;;;;4.60;1.70;;;14.40;99.90;;;;;;5023181;28;20068;-84
2023/07/20 05:34:00;;;;;;;3.80;1.55;;;14.40;99.90;;;;;;4990574;28;20123;-85
2023/07/20 05:36:26;;;;;;;4.53;1.75;;;14.40;99.90;;;;;;5040360;28;20032;-85
2023/07/20 05:38:53;;;;;;;4.32;1.42;;;14.40;99.90;;;;;;5059818;28;20032;-85
2023/07/20 05:41:18;;;;;;;4.13;1.52;;;14.50;99.90;;;;;;5010634;28;20086;-85
2023/07/20 05:43:44;;;;;;;4.53;1.70;;;14.50;99.90;;;;;;5059584;28;20062;-86
2023/07/20 05:46:10;;;;;;;7.07;1.77;;;14.50;99.90;;;;;;5009357;28;20043;-86
2023/07/20 05:48:36;;;;;;;6.60;1.50;;;14.60;99.90;;;;;;5024703;28;20495;-86
2023/07/20 05:51:02;;;;;;;3.28;1.48;;;14.60;99.90;;;;;;5041873;28;20036;-85
2023/07/20 05:53:28;;;;;;;5.88;1.70;;;14.70;99.90;;;;;;5075895;28;20039;-85
2023/07/20 05:55:54;;;;;;;3.85;1.50;;;14.70;99.90;;;;;;5010173;28;20131;-86
2023/07/20 05:58:21;;;;;;;4.55;1.67;;;14.80;99.90;;;;;;5076487;28;20423;-85
2023/07/20 06:00:50;;;;;;;5.05;1.50;;;14.80;99.90;;;;;;5040878;28;20450;-86
2023/07/20 06:03:22;;;;;;;4.45;1.35;;;14.90;99.90;;;;;;5039506;28;20035;-88
2023/07/20 06:05:59;;;;;;;3.40;1.48;;;15.00;99.90;;;;;;5026052;28;20036;-86
2023/07/20 06:08:25;;;;;;;6.70;1.30;;;15.00;99.90;;;;;;5040295;28;20099;-86
2023/07/20 06:10:54;;;;;;;3.22;1.40;;;15.10;99.90;;;;;;5041616;28;20041;-85
2023/07/20 06:13:20;;;;;;;4.82;1.48;;;15.10;99.90;;;;;;5024918;28;20029;-87
2023/07/20 06:15:47;;;;;;;2.33;1.13;;;15.20;99.90;;;;;;5042042;28;20073;-86
2023/07/20 06:18:13;;;;;;;5.95;1.30;;;15.20;99.90;;;;;;5044502;28;20419;-86
2023/07/20 06:20:53;;;;;;;2.85;1.13;;;15.30;99.90;;;;;;5046829;28;20036;-85
2023/07/20 06:23:20;;;;;;;4.95;1.33;;;15.30;99.90;;;;;;5060592;28;20032;-86
2023/07/20 06:25:46;;;;;;;5.57;1.60;;;15.40;99.90;;;;;;5077498;28;20102;-85
2023/07/20 06:28:12;;;;;;;5.55;1.38;;;15.40;99.90;;;;;;5025661;28;20032;-85
2023/07/20 06:30:38;;;;;;;4.68;1.30;;;15.40;99.90;;;;;;5027647;28;20028;-85
2023/07/20 06:33:04;;;;;;;2.97;1.30;;;15.50;99.90;;;;;;5044670;28;20047;-85
2023/07/20 06:35:30;;;;;;;4.45;1.75;;;15.50;99.90;;;;;;5011153;28;20122;-85
2023/07/20 06:37:57;;;;;;;5.47;1.85;;;15.60;99.90;;;;;;5077637;28;20028;-85
2023/07/20 06:40:23;;;;;;;6.55;2.08;;;15.60;99.90;;;;;;5027994;28;20054;-86
2023/07/20 06:42:49;;;;;;;7.13;2.45;;;15.70;99.90;;;;;;5026150;28;20048;-85
2023/07/20 06:45:16;;;;;;;7.03;2.33;;;15.70;99.90;;;;;;5060431;28;20036;-86
2023/07/20 06:47:42;;;;;;;5.32;2.40;;;15.80;99.90;;;;;;5077784;28;20479;-85
2023/07/20 06:50:09;;;;;;;6.18;2.28;;;15.80;99.90;;;;;;5010950;28;20047;-85
2023/07/20 06:52:36;;;;;;;4.78;2.30;;;15.90;99.90;;;;;;5056407;28;20416;-86
2023/07/20 06:55:08;;;;;;;6.93;2.22;;;15.90;99.90;;;;;;5023756;28;20036;-86
2023/07/20 06:57:36;;;;;;;5.78;2.30;;;15.90;99.90;;;;;;5043972;28;20040;-85
2023/07/20 07:00:04;;;;;;;4.72;2.22;;;16.00;99.90;;;;;;5027286;28;20063;-86
2023/07/20 07:02:34;;;;;;;5.78;2.17;;;16.10;99.90;;;;;;5043547;28;20028;-85
2023/07/20 07:05:06;;;;;;;5.40;2.40;;;16.00;99.90;;;;;;5044348;28;20361;-86
2023/07/20 07:07:34;;;;;;;5.53;2.17;;;16.10;99.90;;;;;;5027222;28;20040;-85
2023/07/20 07:10:05;;;;;;;6.13;2.55;;;16.20;99.90;;;;;;5044138;28;20029;-85
2023/07/20 07:12:31;;;;;;;6.47;2.40;;;16.20;99.90;;;;;;5056550;28;20431;-86
2023/07/20 07:15:07;;;;;;;6.38;2.60;;;16.20;99.90;;;;;;5039626;28;20084;-86
2023/07/20 07:17:35;;;;;;;8.35;2.63;;;16.30;99.90;;;;;;5062160;28;20028;-85
2023/07/20 07:20:03;;;;;;;5.90;2.47;;;16.40;99.90;;;;;;5097821;28;20020;-85
2023/07/20 07:22:34;;;;;;;4.72;2.53;;;16.40;99.90;;;;;;5064991;28;20059;-86
2023/07/20 07:25:00;;;;;;;8.90;2.42;;;16.50;99.90;;;;;;5046991;28;20597;-85
2023/07/20 07:27:26;;;;;;;5.88;2.78;;;16.50;99.90;;;;;;5043253;28;20029;-85
2023/07/20 07:29:52;;;;;;;6.22;2.42;;;16.60;99.90;;;;;;5036011;28;20438;-85
2023/07/20 07:32:18;;;;;;;6.82;2.53;;;16.60;99.90;;;;;;5047120;28;20047;-85
2023/07/20 07:34:46;;;;;;;6.50;2.47;;;16.80;99.90;;;;;;5046321;28;20035;-85
2023/07/20 07:37:19;;;;;;;6.43;2.65;;;16.90;99.90;;;;;;5040840;28;20040;-85
2023/07/20 07:39:47;;;;;;;6.45;2.33;;;17.10;99.90;;;;;;5060927;28;20043;-86
2023/07/20 07:42:18;;;;;;;8.13;2.63;;;17.10;99.90;;;;;;5079748;28;20427;-86
2023/07/20 07:44:49;;;;;;;6.15;2.53;;;17.10;99.90;;;;;;5063088;28;20142;-85
2023/07/20 07:47:23;;;;;;;6.68;2.63;;;17.20;99.90;;;;;;5063079;28;20057;-85
2023/07/20 07:49:59;;;;;;;7.88;2.70;;;17.30;99.90;;;;;;5039487;28;20063;-85
2023/07/20 07:52:28;;;;;;;7.63;2.63;;;17.40;99.90;;;;;;5048716;28;20113;-85
2023/07/20 07:54:57;;;;;;;8.48;2.35;;;17.50;99.90;;;;;;5035161;28;20105;-86
2023/07/20 07:57:23;;;;;;;5.55;2.38;;;17.60;99.90;;;;;;5041944;28;20100;-85
2023/07/20 07:59:50;;;;;;;8.82;2.50;;;17.60;99.90;;;;;;5008866;28;20028;-85
2023/07/20 08:02:16;;;;;;;6.80;2.28;;;17.60;99.90;;;;;;5061466;28;20052;-85
2023/07/20 08:04:44;;;;;;;7.82;2.15;;;17.50;99.90;;;;;;5041768;28;20118;-87
2023/07/20 08:07:30;;;;;;;6.78;2.20;;;17.40;99.90;;;;;;5078444;28;20139;-85
2023/07/20 08:10:10;;;;;;;7.65;2.45;;;17.30;99.90;;;;;;5049304;28;20044;-85
2023/07/20 08:13:07;;;;;;;7.80;2.10;;;17.40;99.90;;;;;;5049191;28;20456;-86
2023/07/20 08:15:57;;;;;;;9.15;2.03;;;17.60;99.90;;;;;;5045503;28;20032;-86
2023/07/20 08:18:58;;;;;;;6.85;2.20;;;17.70;99.90;;;;;;5050145;28;20331;-85
2023/07/20 08:21:40;;;;;;;9.70;1.98;;;18.00;99.90;;;;;;5043393;28;20070;-86
2023/07/20 08:24:07;;;;;;;6.82;1.95;;;18.10;99.90;;;;;;5044998;28;20041;-85
2023/07/20 08:26:33;;;;;;;6.95;2.03;;;18.30;99.90;;;;;;5054180;28;20035;-86
2023/07/20 08:28:59;;;;;;;7.40;1.98;;;18.50;99.90;;;;;;5043243;28;20357;-86
2023/07/20 08:31:27;;;;;;;5.15;2.00;;;18.50;99.90;;;;;;5070056;28;20047;-85
2023/07/20 08:33:54;;;;;;;4.72;1.83;;;18.40;99.90;;;;;;5010359;28;20037;-86
2023/07/20 08:36:20;;;;;;;6.40;1.95;;;18.30;99.90;;;;;;5042990;28;20025;-85
2023/07/20 08:38:48;;;;;;;5.18;1.90;;;18.30;99.90;;;;;;5042769;28;20082;-85
2023/07/20 08:41:15;;;;;;;5.97;1.73;;;18.30;99.90;;;;;;5059655;28;20124;-85
2023/07/20 08:43:43;;;;;;;6.32;1.70;;;18.30;99.90;;;;;;5058887;28;20053;-85
2023/07/20 08:46:12;;;;;;;6.38;1.75;;;18.20;99.90;;;;;;5058788;28;20024;-85
2023/07/20 08:48:40;;;;;;;6.57;2.47;;;18.10;99.90;;;;;;5026325;28;20044;-86
2023/07/20 08:51:06;;;;;;;6.13;1.70;;;18.20;99.90;;;;;;5052577;28;20028;-85
2023/07/20 08:53:33;;;;;;;6.03;1.45;;;18.40;99.90;;;;;;5042961;28;20089;-85
2023/07/20 08:56:01;;;;;;;5.07;1.65;;;18.50;99.90;;;;;;5033595;28;20032;-86
2023/07/20 08:58:28;;;;;;;5.20;1.73;;;18.60;99.90;;;;;;5078406;28;20028;-86
2023/07/20 09:00:55;;;;;;;4.53;1.48;;;18.60;99.90;;;;;;5041644;28;20328;-85
2023/07/20 09:03:21;;;;;;;5.22;1.70;;;18.60;99.90;;;;;;5053420;28;20488;-86
2023/07/20 09:05:47;;;;;;;4.35;1.60;;;18.60;99.90;;;;;;5031096;28;20207;-86
2023/07/20 09:08:13;;;;;;;4.50;1.55;;;18.50;99.90;;;;;;5012799;28;20043;-85
2023/07/20 09:10:39;;;;;;;4.82;1.85;;;18.40;99.90;;;;;;5042385;28;20430;-87
2023/07/20 09:13:07;;;;;;;5.25;1.40;;;18.30;99.90;;;;;;5059692;28;20043;-85
2023/07/20 09:15:33;;;;;;;4.50;1.48;;;18.50;99.90;;;;;;5015891;28;20036;-86
2023/07/20 09:18:02;;;;;;;5.25;1.70;;;18.60;99.90;;;;;;5045163;28;20024;-86
2023/07/20 09:20:32;;;;;;;4.15;1.52;;;18.90;99.90;;;;;;5078655;28;20024;-86
2023/07/20 09:22:58;;;;;;;3.55;1.40;;;19.10;99.90;;;;;;5051084;28;20395;-86
2023/07/20 09:25:24;;;;;;;5.38;1.52;;;19.20;99.90;;;;;;5056916;28;20036;-86
2023/07/20 09:27:50;;;;;;;4.05;1.70;;;19.30;99.90;;;;;;5042626;28;20064;-85
2023/07/20 09:30:17;;;;;;;6.13;1.80;;;19.30;99.90;;;;;;5019324;28;20035;-86
2023/07/20 09:32:47;;;;;;;4.53;1.52;;;19.30;99.90;;;;;;5047876;28;20107;-86
2023/07/20 09:35:21;;;;;;;5.22;1.75;;;19.20;99.90;;;;;;5043081;28;20542;-85
2023/07/20 09:38:14;;;;;;;4.35;1.60;;;19.10;99.90;;;;;;5035579;28;20040;-86
2023/07/20 09:40:42;;;;;;;6.20;1.90;;;19.00;99.90;;;;;;5057416;28;20324;-86
2023/07/20 09:43:09;;;;;;;4.45;1.60;;;19.10;99.90;;;;;;5021258;28;20072;-86
2023/07/20 09:45:42;;;;;;;4.47;1.90;;;19.20;99.90;;;;;;5073981;28;20052;-85
2023/07/20 09:48:09;;;;;;;4.78;1.63;;;19.40;99.90;;;;;;5059605;28;20102;-86
2023/07/20 09:50:43;;;;;;;5.75;1.50;;;19.50;99.90;;;;;;5061479;28;20032;-85
2023/07/20 09:53:13;;;;;;;5.45;1.75;;;19.80;99.90;;;;;;5046395;28;20024;-85
2023/07/20 09:55:41;;;;;;;3.50;1.60;;;19.80;99.90;;;;;;5027791;28;20063;-85
2023/07/20 09:58:09;;;;;;;3.03;1.45;;;19.90;99.90;;;;;;5053421;28;20071;-86
2023/07/20 10:00:38;;;;;;;5.60;1.75;;;20.00;99.90;;;;;;5049241;28;20025;-86
2023/07/20 10:03:05;;;;;;;3.38;1.50;;;20.10;99.90;;;;;;5040869;28;20412;-86
2023/07/20 10:05:36;;;;;;;4.63;1.52;;;20.00;99.90;;;;;;5025017;28;20103;-85
2023/07/20 10:08:05;;;;;;;4.82;1.80;;;20.00;99.90;;;;;;5018085;28;20320;-85
2023/07/20 10:10:33;;;;;;;5.13;1.70;;;19.90;99.90;;;;;;5041275;28;20131;-86
2023/07/20 10:13:02;;;;;;;5.65;1.60;;;20.00;99.90;;;;;;5039301;28;20419;-86
2023/07/20 10:15:40;;;;;;;3.63;1.50;;;20.10;99.90;;;;;;5008392;28;20040;-85
2023/07/20 10:18:10;;;;;;;5.53;1.85;;;20.20;99.90;;;;;;5041499;28;20158;-86
2023/07/20 10:20:38;;;;;;;5.43;1.30;;;20.30;99.90;;;;;;5027247;28;20120;-86
2023/07/20 10:23:05;;;;;;;4.72;2.00;;;20.20;99.90;;;;;;5059068;28;20419;-85
2023/07/20 10:25:38;;;;;;;4.65;1.77;;;20.20;99.90;;;;;;5025698;28;20043;-86
2023/07/20 10:28:07;;;;;;;4.93;1.80;;;20.00;99.90;;;;;;5045642;28;20071;-86
2023/07/20 10:30:36;;;;;;;4.50;2.03;;;20.00;99.90;;;;;;5042809;28;20475;-86
2023/07/20 10:33:06;;;;;;;4.15;1.75;;;19.90;99.90;;;;;;5052842;28;20089;-86
2023/07/20 10:35:55;;;;;;;4.70;1.90;;;19.80;99.90;;;;;;5057392;28;20329;-85
2023/07/20 10:38:51;;;;;;;6.55;1.90;;;19.80;99.90;;;;;;5051186;28;20384;-86
2023/07/20 10:41:20;;;;;;;3.35;1.55;;;19.80;99.90;;;;;;5064263;28;20048;-85
2023/07/20 10:43:47;;;;;;;5.68;1.70;;;19.80;99.90;;;;;;5027704;28;20440;-84
2023/07/20 10:46:13;;;;;;;6.22;2.00;;;19.90;99.90;;;;;;5044145;28;20036;-86
2023/07/20 10:49:26;;;;;;;4.13;1.67;;;20.00;99.90;;;;;;4995387;28;20037;-85
2023/07/20 10:52:01;;;;;;;8.55;2.20;;;20.10;99.90;;;;;;5053428;28;20120;-86
2023/07/20 10:54:30;;;;;;;4.90;1.90;;;20.20;99.90;;;;;;5048318;28;20028;-86
2023/07/20 10:56:57;;;;;;;5.00;1.85;;;20.30;99.90;;;;;;5047083;28;20421;-86
2023/07/20 10:59:23;;;;;;;5.78;1.60;;;20.50;99.90;;;;;;5047633;28;20050;-86
2023/07/20 11:01:59;;;;;;;6.97;2.00;;;20.50;99.80;;;;;;5047691;28;20124;-86
2023/07/20 11:04:53;;;;;;;4.75;1.80;;;20.50;99.60;;;;;;5055202;28;20415;-85
2023/07/20 11:07:40;;;;;;;3.97;1.80;;;20.40;99.60;;;;;;5041388;28;20139;-85
2023/07/20 11:10:15;;;;;;;4.93;2.25;;;20.30;99.90;;;;;;5045693;28;20317;-86
2023/07/20 11:13:01;;;;;;;4.63;1.90;;;20.30;99.90;;;;;;5060625;28;20082;-86
2023/07/20 11:15:48;;;;;;;4.55;2.22;;;20.20;99.90;;;;;;5049403;28;20045;-86
2023/07/20 11:18:14;;;;;;;8.25;1.85;;;20.20;99.80;;;;;;5027588;28;20036;-85
2023/07/20 11:20:41;;;;;;;6.32;1.80;;;20.30;99.90;;;;;;5047495;28;20033;-85
2023/07/20 11:23:08;;;;;;;5.03;1.98;;;20.30;99.90;;;;;;5049253;28;20387;-86
2023/07/20 11:25:39;;;;;;;4.90;1.80;;;20.40;99.90;;;;;;5061521;28;20379;-86
2023/07/20 11:28:10;;;;;;;5.72;1.85;;;20.30;99.50;;;;;;5026047;28;20034;-85
2023/07/20 11:30:38;;;;;;;4.43;1.80;;;20.30;99.70;;;;;;5043890;28;20432;-85
2023/07/20 11:33:09;;;;;;;3.60;1.90;;;20.30;99.80;;;;;;5031408;28;20041;-86
2023/07/20 11:35:38;;;;;;;6.05;1.70;;;20.40;99.70;;;;;;5063854;28;20064;-86
2023/07/20 11:38:07;;;;;;;4.30;1.92;;;20.40;99.10;;;;;;5059449;28;20025;-86
2023/07/20 11:40:35;;;;;;;3.88;1.70;;;20.40;98.80;;;;;;5036060;28;20031;-85
2023/07/20 11:43:01;;;;;;;4.55;1.52;;;20.40;98.80;;;;;;5025071;28;20045;-86
2023/07/20 11:45:32;;;;;;;6.07;1.77;;;20.30;98.40;;;;;;5037409;28;20120;-85
2023/07/20 11:47:59;;;;;;;3.88;1.67;;;20.30;98.70;;;;;;5025627;28;20132;-86
2023/07/20 11:50:25;;;;;;;3.33;1.67;;;20.30;98.40;;;;;;5059648;28;20120;-86
2023/07/20 11:52:53;;;;;;;4.15;1.80;;;20.40;98.30;;;;;;5050337;28;20073;-86
2023/07/20 11:55:22;;;;;;;3.35;1.73;;;20.40;98.10;;;;;;5075624;28;20432;-86
2023/07/20 11:58:21;;;;;;;3.25;1.42;;;20.40;98.00;;;;;;5043253;28;20036;-85
2023/07/20 12:00:48;;;;;;;3.55;1.73;;;20.50;97.70;;;;;;5003467;28;20435;-86
2023/07/20 12:03:14;;;;;;;2.80;1.63;;;20.50;97.70;;;;;;5041525;28;20025;-86
2023/07/20 12:05:42;;;;;;;4.63;1.70;;;20.60;97.50;;;;;;5007521;28;20040;-87
2023/07/20 12:08:08;;;;;;;4.13;1.50;;;20.70;96.80;;;;;;5047850;28;20053;-86
2023/07/20 12:10:34;;;;;;;5.10;1.70;;;20.80;96.90;;;;;;5059270;28;20064;-85
2023/07/20 12:13:03;;;;;;;6.30;1.65;;;20.80;96.70;;;;;;5051242;28;20123;-85
2023/07/20 12:15:30;;;;;;;3.80;1.35;;;20.90;97.00;;;;;;5059570;28;20032;-85
2023/07/20 12:17:58;;;;;;;3.40;1.27;;;20.90;96.60;;;;;;5008852;28;20037;-86
2023/07/20 12:20:38;;;;;;;3.70;1.60;;;21.00;96.40;;;;;;5056382;28;20048;-85
2023/07/20 12:23:11;;;;;;;3.08;1.30;;;21.10;96.00;;;;;;5057054;28;20083;-85
2023/07/20 12:25:42;;;;;;;3.30;1.40;;;21.20;95.60;;;;;;5023637;28;20044;-85
2023/07/20 12:28:16;;;;;;;2.50;1.20;;;21.30;95.60;;;;;;5037949;28;20036;-86
2023/07/20 12:30:46;;;;;;;3.70;1.73;;;21.40;95.60;;;;;;5064756;28;20032;-86
2023/07/20 12:33:15;;;;;;;3.97;1.60;;;21.40;95.60;;;;;;5047403;28;20420;-86
2023/07/20 12:35:43;;;;;;;3.83;1.60;;;21.40;95.40;;;;;;5039299;28;20328;-86
2023/07/20 12:38:09;;;;;;;3.85;1.60;;;21.50;95.60;;;;;;5039422;28;20440;-85
2023/07/20 12:40:36;;;;;;;4.03;1.55;;;21.50;95.70;;;;;;5026351;28;20107;-86
2023/07/20 12:43:02;;;;;;;3.80;1.60;;;21.50;95.60;;;;;;5042398;28;20048;-86
2023/07/20 12:45:28;;;;;;;4.20;1.80;;;21.60;95.80;;;;;;5042487;28;20059;-86
2023/07/20 12:47:54;;;;;;;4.75;1.70;;;21.60;95.90;;;;;;5059358;28;20037;-85
2023/07/20 12:50:20;;;;;;;3.17;1.60;;;21.70;95.90;;;;;;5042271;28;20036;-86
2023/07/20 12:52:46;;;;;;;3.20;1.42;;;21.70;95.80;;;;;;5039487;28;20037;-86
2023/07/20 12:55:11;;;;;;;3.75;1.30;;;21.70;95.60;;;;;;5022331;28;20036;-86
2023/07/20 12:57:38;;;;;;;2.05;1.20;;;21.70;95.30;;;;;;5055928;28;20036;-85